Time;durP1;ratioP1;P1;durP2;ratioP2;P2;SDS_P1;SDS_P2;PMS_P1;PMS_P2;Temp;Humidity;BMP_temperature;BMP_pressure;BME280_temperature;BME280_humidity;BME280_pressure;Samples;Min_cycle;Max_cycle;Signal;HPM_P1;HPM_P2
2024/01/21 00:01:13;;;;;;;44.57;14.13;;;-5.30;99.90;;;;;;4904378;29;20192;-49
2024/01/21 00:03:39;;;;;;;49.63;14.77;;;-5.30;99.90;;;;;;4902833;29;20184;-50
2024/01/21 00:06:05;;;;;;;44.67;14.27;;;-5.40;99.90;;;;;;4905873;29;20480;-50
2024/01/21 00:08:31;;;;;;;46.57;15.70;;;-5.50;99.90;;;;;;4910344;29;20688;-50
2024/01/21 00:10:56;;;;;;;47.53;14.77;;;-5.40;99.90;;;;;;4896968;29;20196;-49
2024/01/21 00:13:22;;;;;;;53.17;15.47;;;-5.50;99.90;;;;;;4903631;29;20552;-52
2024/01/21 00:15:47;;;;;;;51.13;15.83;;;-5.50;99.90;;;;;;4910693;29;20202;-50
2024/01/21 00:18:13;;;;;;;51.33;15.07;;;-5.50;99.90;;;;;;4905206;29;20352;-52
2024/01/21 00:20:39;;;;;;;54.97;16.27;;;-5.50;99.90;;;;;;4911028;29;20204;-51
2024/01/21 00:23:04;;;;;;;54.73;16.30;;;-5.50;99.90;;;;;;4900253;29;20200;-52
2024/01/21 00:25:30;;;;;;;59.30;17.47;;;-5.60;99.90;;;;;;4907305;29;20226;-53
2024/01/21 00:27:56;;;;;;;53.60;16.97;;;-5.60;99.90;;;;;;4907637;29;20213;-52
2024/01/21 00:30:21;;;;;;;57.17;17.67;;;-5.60;99.90;;;;;;4903624;29;20196;-52
2024/01/21 00:32:47;;;;;;;52.53;16.00;;;-5.60;99.90;;;;;;4896333;29;20260;-49
2024/01/21 00:35:12;;;;;;;58.50;16.87;;;-5.60;99.90;;;;;;4905800;29;20227;-51
2024/01/21 00:37:38;;;;;;;58.37;16.77;;;-5.80;99.90;;;;;;4901080;29;20216;-49
2024/01/21 00:40:05;;;;;;;57.70;17.03;;;-5.90;99.90;;;;;;4905053;29;20203;-49
2024/01/21 00:42:30;;;;;;;50.87;17.73;;;-5.90;99.90;;;;;;4909961;29;20200;-49
2024/01/21 00:44:56;;;;;;;50.27;15.63;;;-5.90;99.90;;;;;;4903256;29;20498;-50
2024/01/21 00:47:22;;;;;;;55.40;17.07;;;-5.90;99.90;;;;;;4911042;29;20590;-51
2024/01/21 00:49:47;;;;;;;59.07;17.60;;;-6.00;99.90;;;;;;4903869;29;20640;-48
2024/01/21 00:52:13;;;;;;;58.97;17.90;;;-6.10;99.90;;;;;;4903513;29;20536;-49
2024/01/21 00:54:39;;;;;;;49.43;16.47;;;-6.10;99.90;;;;;;4895578;29;20201;-53
2024/01/21 00:57:04;;;;;;;42.73;15.10;;;-6.00;99.90;;;;;;4912242;29;20220;-52
2024/01/21 00:59:30;;;;;;;55.97;17.07;;;-6.00;99.90;;;;;;4914373;29;20199;-49
2024/01/21 01:01:55;;;;;;;52.80;15.83;;;-6.00;99.90;;;;;;4898739;29;20188;-50
2024/01/21 01:04:21;;;;;;;53.00;16.33;;;-6.00;99.90;;;;;;4914534;29;20200;-48
2024/01/21 01:06:46;;;;;;;45.63;16.00;;;-5.90;99.90;;;;;;4906680;29;20299;-48
2024/01/21 01:09:12;;;;;;;50.67;15.97;;;-6.00;99.90;;;;;;4905639;29;20200;-48
2024/01/21 01:11:38;;;;;;;44.90;14.87;;;-6.10;99.90;;;;;;4901285;29;20556;-49
2024/01/21 01:14:03;;;;;;;46.53;15.90;;;-6.10;99.90;;;;;;4911992;29;20432;-49
2024/01/21 01:16:29;;;;;;;53.03;16.43;;;-6.10;99.90;;;;;;4905728;29;20545;-52
2024/01/21 01:18:55;;;;;;;56.47;16.47;;;-6.10;99.90;;;;;;4913843;29;20540;-50
2024/01/21 01:21:20;;;;;;;57.00;17.53;;;-6.30;99.90;;;;;;4906384;29;20239;-48
2024/01/21 01:23:46;;;;;;;49.83;16.20;;;-6.30;99.90;;;;;;4899451;29;20197;-50
2024/01/21 01:26:11;;;;;;;50.53;16.73;;;-6.20;99.90;;;;;;4896751;29;20606;-50
2024/01/21 01:28:37;;;;;;;47.03;15.23;;;-6.20;99.90;;;;;;4900337;29;20607;-52
2024/01/21 01:31:03;;;;;;;53.90;17.50;;;-6.20;99.90;;;;;;4904438;29;20567;-50
2024/01/21 01:33:29;;;;;;;50.93;16.33;;;-6.10;99.90;;;;;;4906330;29;20428;-49
2024/01/21 01:35:54;;;;;;;58.90;16.20;;;-6.20;99.90;;;;;;4905436;29;20192;-50
2024/01/21 01:38:20;;;;;;;57.17;16.70;;;-6.20;99.90;;;;;;4895058;29;20645;-51
2024/01/21 01:40:46;;;;;;;53.53;16.13;;;-6.10;99.90;;;;;;4905114;29;20196;-49
2024/01/21 01:43:11;;;;;;;54.03;17.10;;;-6.10;99.90;;;;;;4910252;29;20591;-49
2024/01/21 01:45:37;;;;;;;52.87;16.20;;;-6.20;99.90;;;;;;4899979;29;20302;-51
2024/01/21 01:48:03;;;;;;;46.63;16.10;;;-6.10;99.90;;;;;;4912226;29;20278;-49
2024/01/21 01:50:30;;;;;;;47.73;15.00;;;-6.10;99.90;;;;;;4913701;29;20194;-48
2024/01/21 01:52:56;;;;;;;45.87;16.60;;;-6.00;99.90;;;;;;4905449;29;20464;-51
2024/01/21 01:55:22;;;;;;;47.90;16.50;;;-6.00;99.90;;;;;;4905696;29;20505;-51
2024/01/21 01:57:48;;;;;;;56.90;15.93;;;-6.00;99.90;;;;;;4906316;29;21024;-51
2024/01/21 02:00:14;;;;;;;50.53;15.23;;;-5.90;99.90;;;;;;4905123;29;20199;-51
2024/01/21 02:02:43;;;;;;;51.73;15.53;;;-6.00;99.90;;;;;;4907608;29;20724;-49
2024/01/21 02:05:10;;;;;;;45.63;15.23;;;-6.20;99.90;;;;;;4903691;29;20424;-51
2024/01/21 02:07:36;;;;;;;48.20;14.73;;;-6.20;99.90;;;;;;4913354;29;20839;-48
2024/01/21 02:10:02;;;;;;;49.97;16.43;;;-6.20;99.90;;;;;;4904461;29;20431;-49
2024/01/21 02:12:29;;;;;;;44.77;14.67;;;-6.20;99.90;;;;;;4902397;29;20196;-49
2024/01/21 02:14:54;;;;;;;51.10;15.50;;;-6.20;99.90;;;;;;4894147;29;20489;-55
2024/01/21 02:17:20;;;;;;;47.27;16.63;;;-6.20;99.90;;;;;;4905654;29;20447;-49
2024/01/21 02:19:46;;;;;;;53.37;15.57;;;-6.30;99.90;;;;;;4913467;29;20230;-49
2024/01/21 02:22:12;;;;;;;51.57;15.40;;;-6.20;99.90;;;;;;4905420;29;20196;-49
2024/01/21 02:24:38;;;;;;;45.53;15.00;;;-6.30;99.90;;;;;;4913186;29;20195;-50
2024/01/21 02:27:04;;;;;;;47.50;14.83;;;-6.40;99.90;;;;;;4903511;29;20485;-48
2024/01/21 02:29:30;;;;;;;37.63;14.30;;;-6.50;99.90;;;;;;4899615;29;20197;-48
2024/01/21 02:31:57;;;;;;;40.00;13.27;;;-6.50;99.90;;;;;;4909154;29;20278;-50
2024/01/21 02:34:22;;;;;;;43.67;14.13;;;-6.50;99.90;;;;;;4902130;29;20198;-49
2024/01/21 02:36:48;;;;;;;40.17;13.77;;;-6.40;99.90;;;;;;4908642;29;20866;-52
2024/01/21 02:39:14;;;;;;;46.33;15.80;;;-6.40;99.90;;;;;;4909174;29;20200;-50
2024/01/21 02:41:39;;;;;;;40.47;13.63;;;-6.40;99.90;;;;;;4917051;29;20582;-49
2024/01/21 02:44:05;;;;;;;43.70;13.90;;;-6.60;99.90;;;;;;4916803;29;20296;-52
2024/01/21 02:46:30;;;;;;;50.73;16.40;;;-6.80;99.90;;;;;;4903928;29;20227;-49
2024/01/21 02:48:56;;;;;;;45.80;14.73;;;-6.80;99.90;;;;;;4913507;29;20386;-49
2024/01/21 02:51:21;;;;;;;50.57;15.23;;;-6.80;99.90;;;;;;4909429;29;20194;-50
2024/01/21 02:53:47;;;;;;;44.63;14.77;;;-6.80;99.90;;;;;;4908789;29;20665;-53
2024/01/21 02:56:23;;;;;;;46.23;14.00;;;-6.80;99.90;;;;;;4915036;29;20208;-50
2024/01/21 02:58:50;;;;;;;46.67;14.93;;;-6.70;99.90;;;;;;4909158;29;20569;-50
2024/01/21 03:01:16;;;;;;;45.50;15.03;;;-6.70;99.90;;;;;;4916393;29;20865;-49
2024/01/21 03:03:42;;;;;;;48.40;14.70;;;;;;;;;;4916621;29;20530;-49
2024/01/21 03:06:08;;;;;;;40.77;13.50;;;;;;;;;;4907925;29;20575;-49
2024/01/21 03:08:34;;;;;;;48.37;14.63;;;-7.00;99.90;;;;;;4916427;29;20570;-51
2024/01/21 03:11:00;;;;;;;41.97;14.57;;;;;;;;;;4907962;29;20197;-49
2024/01/21 03:13:25;;;;;;;42.57;13.67;;;-6.90;99.90;;;;;;4901658;29;20191;-49
2024/01/21 03:15:52;;;;;;;41.23;14.83;;;-7.00;99.90;;;;;;4915899;29;20225;-48
2024/01/21 03:18:18;;;;;;;43.23;13.53;;;-7.20;99.90;;;;;;4897539;29;20219;-48
2024/01/21 03:20:44;;;;;;;44.20;13.60;;;-7.30;99.90;;;;;;4911645;29;20435;-48
2024/01/21 03:23:09;;;;;;;41.97;14.20;;;-7.20;99.90;;;;;;4906437;29;20200;-51
2024/01/21 03:25:35;;;;;;;48.17;13.83;;;-7.20;99.90;;;;;;4909665;29;20275;-49
2024/01/21 03:28:00;;;;;;;37.83;13.30;;;-7.30;99.90;;;;;;4915280;29;20227;-52
2024/01/21 03:30:26;;;;;;;48.57;13.27;;;-7.20;99.90;;;;;;4909186;29;20663;-48
2024/01/21 03:32:52;;;;;;;42.17;14.27;;;-7.20;99.90;;;;;;4908543;29;20268;-51
2024/01/21 03:35:18;;;;;;;42.53;13.17;;;-7.20;99.90;;;;;;4915357;29;20666;-49
2024/01/21 03:37:43;;;;;;;45.60;14.40;;;-7.20;99.90;;;;;;4908120;29;20215;-48
2024/01/21 03:40:09;;;;;;;44.40;14.37;;;-7.10;99.90;;;;;;4915749;29;20199;-51
2024/01/21 03:42:35;;;;;;;42.47;13.63;;;-7.10;99.90;;;;;;4908215;29;20188;-51
2024/01/21 03:45:00;;;;;;;44.57;13.27;;;-7.10;99.90;;;;;;4914558;29;20196;-53
2024/01/21 03:47:26;;;;;;;39.43;13.80;;;-7.20;99.90;;;;;;4901037;29;20207;-49
2024/01/21 03:49:51;;;;;;;50.97;14.13;;;-7.20;99.90;;;;;;4908439;29;20214;-48
2024/01/21 03:52:17;;;;;;;42.73;14.03;;;-7.20;99.90;;;;;;4907713;29;20206;-48
2024/01/21 03:54:43;;;;;;;40.23;13.20;;;-7.20;99.90;;;;;;4901865;29;20199;-49
2024/01/21 03:57:08;;;;;;;44.73;13.50;;;-7.30;99.90;;;;;;4904394;29;20593;-51
2024/01/21 03:59:34;;;;;;;41.77;14.17;;;-7.30;99.90;;;;;;4909592;29;20271;-50
2024/01/21 04:02:00;;;;;;;45.10;14.97;;;-7.30;99.90;;;;;;4907267;29;20644;-49
2024/01/21 04:04:25;;;;;;;44.70;13.73;;;-7.40;99.90;;;;;;4904587;29;20188;-49
2024/01/21 04:06:51;;;;;;;43.17;12.77;;;-7.50;99.90;;;;;;4910873;29;20227;-51
2024/01/21 04:09:22;;;;;;;47.63;14.20;;;-7.50;99.90;;;;;;4907749;29;20199;-48
2024/01/21 04:11:48;;;;;;;43.97;12.37;;;-7.50;99.90;;;;;;4915636;29;20230;-50
2024/01/21 04:14:13;;;;;;;39.90;13.07;;;-7.60;99.90;;;;;;4907403;29;20472;-49
2024/01/21 04:16:39;;;;;;;39.80;12.63;;;-7.60;99.90;;;;;;4907055;29;20238;-49
2024/01/21 04:19:05;;;;;;;43.30;13.90;;;-7.80;99.90;;;;;;4907314;29;20207;-48
2024/01/21 04:21:32;;;;;;;44.93;12.83;;;-7.80;99.90;;;;;;4902773;29;20279;-50
2024/01/21 04:23:58;;;;;;;45.50;13.57;;;-7.70;99.90;;;;;;4912390;29;20527;-51
2024/01/21 04:26:24;;;;;;;47.93;15.27;;;-7.70;99.90;;;;;;4914409;29;20566;-50
2024/01/21 04:28:49;;;;;;;42.07;13.30;;;-7.80;99.90;;;;;;4907274;29;20877;-52
2024/01/21 04:31:15;;;;;;;36.77;12.37;;;-7.80;99.90;;;;;;4907117;29;20214;-49
2024/01/21 04:33:40;;;;;;;42.03;13.10;;;-7.70;99.90;;;;;;4901468;29;20276;-50
2024/01/21 04:36:06;;;;;;;42.67;12.90;;;-7.70;99.90;;;;;;4896623;29;20235;-50
2024/01/21 04:38:32;;;;;;;38.23;12.47;;;-7.60;99.90;;;;;;4907311;29;20231;-54
2024/01/21 04:40:57;;;;;;;44.27;12.77;;;-7.60;99.90;;;;;;4913551;29;20200;-52
2024/01/21 04:43:24;;;;;;;40.97;11.80;;;-7.50;99.90;;;;;;4910089;29;20219;-49
2024/01/21 04:45:49;;;;;;;42.43;12.63;;;-7.50;99.90;;;;;;4902445;29;20251;-54
2024/01/21 04:48:15;;;;;;;41.07;14.30;;;-7.40;99.90;;;;;;4896407;29;20481;-49
2024/01/21 04:50:41;;;;;;;38.43;12.63;;;-7.50;99.90;;;;;;4895913;29;20275;-50
2024/01/21 04:53:06;;;;;;;40.43;13.00;;;-7.50;99.90;;;;;;4895247;29;20188;-49
2024/01/21 04:55:32;;;;;;;37.87;12.73;;;-7.50;99.90;;;;;;4902978;29;20505;-50
2024/01/21 04:57:57;;;;;;;37.00;13.13;;;-7.60;99.90;;;;;;4911604;29;20763;-50
2024/01/21 05:00:23;;;;;;;38.93;12.93;;;-7.70;99.90;;;;;;4894329;29;20225;-54
2024/01/21 05:02:48;;;;;;;37.77;11.90;;;-7.90;99.90;;;;;;4903380;29;20649;-52
2024/01/21 05:05:14;;;;;;;47.07;13.30;;;-8.00;99.90;;;;;;4901719;29;20641;-52
2024/01/21 05:07:40;;;;;;;40.53;13.27;;;-8.00;99.90;;;;;;4900837;29;20311;-52
2024/01/21 05:10:06;;;;;;;43.00;13.17;;;-8.10;99.90;;;;;;4897370;29;20276;-49
2024/01/21 05:12:31;;;;;;;44.83;14.37;;;-8.00;99.90;;;;;;4905513;29;20200;-50
2024/01/21 05:14:57;;;;;;;41.87;12.73;;;-7.90;99.90;;;;;;4902444;29;20192;-53
2024/01/21 05:17:22;;;;;;;37.07;12.70;;;-7.70;99.90;;;;;;4914099;29;20577;-50
2024/01/21 05:19:48;;;;;;;44.63;13.83;;;-7.70;99.90;;;;;;4905298;29;20191;-49
2024/01/21 05:22:13;;;;;;;47.07;14.73;;;-7.70;99.90;;;;;;4906243;29;20204;-51
2024/01/21 05:24:39;;;;;;;50.90;15.23;;;-7.80;99.90;;;;;;4914272;29;20286;-51
2024/01/21 05:27:04;;;;;;;45.60;13.53;;;-7.80;99.90;;;;;;4905419;29;20230;-53
2024/01/21 05:29:30;;;;;;;43.50;13.60;;;-7.90;99.90;;;;;;4908277;29;20200;-50
2024/01/21 05:31:56;;;;;;;37.97;12.80;;;-8.00;99.90;;;;;;4910790;29;20283;-50
2024/01/21 05:34:21;;;;;;;42.97;13.87;;;-8.00;99.90;;;;;;4906473;29;20239;-52
2024/01/21 05:36:48;;;;;;;40.53;12.97;;;-8.00;99.90;;;;;;4899358;29;20271;-54
2024/01/21 05:39:14;;;;;;;43.50;13.70;;;-7.90;99.90;;;;;;4902976;29;20279;-51
2024/01/21 05:41:40;;;;;;;50.13;15.83;;;-8.00;99.90;;;;;;4895665;29;20472;-50
2024/01/21 05:44:05;;;;;;;54.23;16.20;;;-8.00;99.90;;;;;;4911782;29;20188;-49
2024/01/21 05:46:31;;;;;;;46.20;14.60;;;-7.90;99.90;;;;;;4908848;29;20209;-52
2024/01/21 05:48:56;;;;;;;46.37;14.10;;;-8.00;99.90;;;;;;4903159;29;20665;-52
2024/01/21 05:51:22;;;;;;;42.60;14.00;;;-8.10;99.90;;;;;;4903013;29;20188;-51
2024/01/21 05:53:47;;;;;;;41.70;13.90;;;-8.00;99.90;;;;;;4909590;29;20271;-52
2024/01/21 05:56:19;;;;;;;48.17;15.53;;;-7.90;99.90;;;;;;4913255;29;20194;-54
2024/01/21 05:58:46;;;;;;;41.57;13.80;;;-7.90;99.90;;;;;;4906087;29;20216;-49
2024/01/21 06:01:11;;;;;;;51.17;14.20;;;-7.80;99.90;;;;;;4898131;29;20425;-53
2024/01/21 06:03:37;;;;;;;43.23;13.90;;;-7.90;99.90;;;;;;4908186;29;20520;-51
2024/01/21 06:06:03;;;;;;;39.77;14.13;;;-7.80;99.90;;;;;;4910252;29;20223;-50
2024/01/21 06:08:29;;;;;;;48.23;14.30;;;-7.80;99.90;;;;;;4906082;29;20262;-50
2024/01/21 06:10:54;;;;;;;41.97;14.20;;;-7.90;99.90;;;;;;4898622;29;20948;-52
2024/01/21 06:13:20;;;;;;;45.67;14.23;;;-8.00;99.90;;;;;;4905451;29;20453;-53
2024/01/21 06:15:45;;;;;;;43.50;12.70;;;-7.90;99.90;;;;;;4905306;29;20222;-49
2024/01/21 06:18:11;;;;;;;35.10;12.23;;;-8.00;99.90;;;;;;4896167;29;20545;-49
2024/01/21 06:20:37;;;;;;;41.63;13.13;;;-8.10;99.90;;;;;;4900174;29;20222;-50
2024/01/21 06:23:03;;;;;;;41.83;13.20;;;-8.00;99.90;;;;;;4905471;29;20486;-50
2024/01/21 06:25:28;;;;;;;36.10;12.07;;;-8.10;99.90;;;;;;4901921;29;20673;-48
2024/01/21 06:27:54;;;;;;;35.17;11.33;;;-8.20;99.90;;;;;;4897507;29;20217;-54
2024/01/21 06:30:22;;;;;;;43.10;13.47;;;-8.20;99.90;;;;;;4910252;29;20189;-50
2024/01/21 06:32:48;;;;;;;41.40;12.20;;;-8.20;99.90;;;;;;4902656;29;20739;-49
2024/01/21 06:35:13;;;;;;;43.57;13.43;;;-8.20;99.90;;;;;;4911982;29;20804;-50
2024/01/21 06:37:39;;;;;;;37.30;11.50;;;-8.20;99.90;;;;;;4905920;29;20247;-53
2024/01/21 06:40:05;;;;;;;46.87;13.33;;;-8.10;99.90;;;;;;4913837;29;20202;-52
2024/01/21 06:42:31;;;;;;;48.80;14.80;;;-7.90;99.90;;;;;;4909185;29;20193;-49
2024/01/21 06:44:56;;;;;;;36.03;12.23;;;-7.90;99.90;;;;;;4901550;29;20443;-49
2024/01/21 06:47:22;;;;;;;36.33;12.23;;;-7.90;99.90;;;;;;4905584;29;20314;-50
2024/01/21 06:49:47;;;;;;;39.17;12.20;;;-7.90;99.90;;;;;;4912635;29;20215;-49
2024/01/21 06:52:13;;;;;;;41.33;13.07;;;-8.00;99.90;;;;;;4908190;29;20188;-49
2024/01/21 06:54:40;;;;;;;41.20;11.90;;;-8.00;99.90;;;;;;4915322;29;20192;-50
2024/01/21 06:57:05;;;;;;;34.30;10.70;;;-8.10;99.90;;;;;;4912171;29;20223;-49
2024/01/21 06:59:31;;;;;;;38.77;11.73;;;-8.20;99.90;;;;;;4908710;29;20424;-50
2024/01/21 07:01:57;;;;;;;34.80;10.43;;;-8.30;99.90;;;;;;4906577;29;20188;-50
2024/01/21 07:04:22;;;;;;;34.20;11.13;;;-8.40;99.90;;;;;;4913436;29;20707;-51
2024/01/21 07:06:48;;;;;;;33.40;10.13;;;-8.30;99.90;;;;;;4912632;29;20223;-50
2024/01/21 07:09:14;;;;;;;40.37;13.37;;;-8.30;99.90;;;;;;4905436;29;20720;-49
2024/01/21 07:11:42;;;;;;;38.90;12.73;;;-8.30;99.90;;;;;;4907903;29;20546;-50
2024/01/21 07:14:08;;;;;;;33.67;11.20;;;-8.30;99.90;;;;;;4909478;29;20211;-52
2024/01/21 07:16:33;;;;;;;41.30;12.13;;;-8.40;99.90;;;;;;4903275;29;20493;-49
2024/01/21 07:18:59;;;;;;;39.27;11.43;;;-8.30;99.90;;;;;;4913116;29;20735;-53
2024/01/21 07:21:25;;;;;;;46.17;11.47;;;-8.40;99.90;;;;;;4897503;29;20567;-51
2024/01/21 07:23:51;;;;;;;33.17;11.13;;;-8.40;99.90;;;;;;4912228;29;20199;-49
2024/01/21 07:26:18;;;;;;;33.93;11.57;;;-8.50;99.90;;;;;;4915639;29;20912;-48
2024/01/21 07:28:43;;;;;;;31.27;10.13;;;-8.50;99.90;;;;;;4910201;29;20216;-54
2024/01/21 07:31:09;;;;;;;36.13;11.50;;;-8.50;99.90;;;;;;4898511;29;20819;-49
2024/01/21 07:33:34;;;;;;;34.60;10.73;;;-8.40;99.90;;;;;;4903500;29;20189;-48
2024/01/21 07:36:03;;;;;;;35.13;10.70;;;-8.40;99.90;;;;;;4903986;29;20228;-51
2024/01/21 07:38:29;;;;;;;38.37;10.87;;;-8.30;99.90;;;;;;4904718;29;20227;-50
2024/01/21 07:40:54;;;;;;;37.70;12.27;;;-8.30;99.90;;;;;;4904806;29;20455;-49
2024/01/21 07:43:20;;;;;;;38.43;12.17;;;-8.30;99.90;;;;;;4912256;29;20426;-49
2024/01/21 07:45:46;;;;;;;37.37;11.17;;;-8.30;99.90;;;;;;4903788;29;20275;-52
2024/01/21 07:48:11;;;;;;;34.50;10.80;;;-8.30;99.90;;;;;;4898531;29;20735;-48
2024/01/21 07:50:37;;;;;;;42.03;12.23;;;-8.20;99.90;;;;;;4910688;29;20205;-49
2024/01/21 07:53:03;;;;;;;35.83;11.30;;;-8.20;99.90;;;;;;4896859;29;20191;-52
2024/01/21 07:55:28;;;;;;;37.23;11.73;;;-8.30;99.90;;;;;;4895838;29;20181;-50
2024/01/21 07:57:54;;;;;;;35.30;11.77;;;;;;;;;;4911654;29;20444;-51
2024/01/21 08:00:20;;;;;;;28.97;10.83;;;;;;;;;;4907061;29;20679;-51
2024/01/21 08:02:46;;;;;;;56.57;16.53;;;;;;;;;;4907436;29;20426;-50
2024/01/21 08:05:12;;;;;;;42.87;12.87;;;;;;;;;;4904923;29;20183;-53
2024/01/21 08:07:38;;;;;;;37.97;12.27;;;;;;;;;;4907765;29;20327;-52
2024/01/21 08:10:04;;;;;;;38.93;11.90;;;;;;;;;;4907401;29;20244;-53
2024/01/21 08:12:31;;;;;;;46.60;11.90;;;;;;;;;;4911077;29;20200;-50
2024/01/21 08:14:57;;;;;;;35.20;12.20;;;;;;;;;;4903297;29;20508;-53
2024/01/21 08:17:23;;;;;;;39.83;12.43;;;;;;;;;;4906830;29;20531;-51
2024/01/21 08:19:49;;;;;;;39.13;12.17;;;;;;;;;;4900995;29;20584;-50
2024/01/21 08:22:15;;;;;;;36.43;11.90;;;;;;;;;;4905910;29;20511;-51
2024/01/21 08:24:41;;;;;;;36.27;11.80;;;;;;;;;;4907389;29;20516;-51
2024/01/21 08:27:07;;;;;;;43.87;12.90;;;;;;;;;;4897725;29;20597;-50
2024/01/21 08:29:33;;;;;;;44.33;13.77;;;;;;;;;;4914686;29;20424;-51
2024/01/21 08:32:00;;;;;;;42.53;14.83;;;;;;;;;;4914580;29;20511;-53
2024/01/21 08:34:26;;;;;;;42.97;13.53;;;;;;;;;;4899454;29;20419;-52
2024/01/21 08:36:52;;;;;;;47.87;13.87;;;;;;;;;;4907290;29;20445;-53
2024/01/21 08:39:18;;;;;;;38.77;12.97;;;;;;;;;;4911407;29;20188;-55
2024/01/21 08:41:44;;;;;;;38.17;12.27;;;;;;;;;;4895737;29;20424;-50
2024/01/21 08:44:10;;;;;;;41.97;14.07;;;;;;;;;;4903083;29;20200;-51
2024/01/21 08:46:36;;;;;;;45.27;15.20;;;;;;;;;;4907406;29;20220;-51
2024/01/21 08:49:02;;;;;;;46.20;15.63;;;;;;;;;;4914178;29;20278;-51
2024/01/21 08:51:29;;;;;;;55.67;16.70;;;;;;;;;;4914365;29;20184;-50
2024/01/21 08:53:58;;;;;;;61.97;18.40;;;;;;;;;;4914318;29;20523;-52
2024/01/21 08:56:25;;;;;;;57.80;17.63;;;;;;;;;;4905555;29;20614;-49
2024/01/21 08:58:51;;;;;;;48.00;17.17;;;;;;;;;;4914134;29;20428;-51
2024/01/21 09:01:17;;;;;;;57.93;19.00;;;;;;;;;;4906374;29;20456;-50
2024/01/21 09:03:43;;;;;;;48.57;17.70;;;;;;;;;;4906689;29;20449;-50
2024/01/21 09:06:10;;;;;;;66.20;22.60;;;;;;;;;;4912011;29;20522;-49
2024/01/21 09:08:36;;;;;;;79.37;29.20;;;;;;;;;;4899864;29;20267;-50
2024/01/21 09:11:02;;;;;;;77.83;30.67;;;;;;;;;;4914043;29;21021;-50
2024/01/21 09:13:27;;;;;;;64.47;25.20;;;;;;;;;;4902793;29;20649;-50
2024/01/21 09:15:53;;;;;;;61.20;23.07;;;;;;;;;;4902460;29;20425;-53
2024/01/21 09:18:19;;;;;;;67.57;23.40;;;;;;;;;;4897586;29;20563;-50
2024/01/21 09:20:45;;;;;;;76.43;28.23;;;;;;;;;;4913803;29;20282;-50
2024/01/21 09:23:11;;;;;;;74.93;27.00;;;;;;;;;;4905879;29;20203;-51
2024/01/21 09:25:37;;;;;;;76.27;27.43;;;;;;;;;;4908292;29;20598;-51
2024/01/21 09:28:05;;;;;;;96.07;31.30;;;;;;;;;;4910810;29;20209;-49
2024/01/21 09:30:31;;;;;;;97.77;32.13;;;;;;;;;;4902679;29;20425;-53
2024/01/21 09:32:57;;;;;;;77.47;28.40;;;;;;;;;;4902551;29;20885;-51
2024/01/21 09:35:23;;;;;;;72.07;25.57;;;;;;;;;;4896952;29;20499;-50
2024/01/21 09:37:49;;;;;;;63.67;23.73;;;;;;;;;;4913727;29;20448;-52
2024/01/21 09:40:15;;;;;;;54.83;21.40;;;;;;;;;;4913197;29;20263;-50
2024/01/21 09:42:41;;;;;;;70.30;30.07;;;;;;;;;;4900432;29;20181;-49
2024/01/21 09:45:10;;;;;;;72.27;30.33;;;;;;;;;;4902567;29;20516;-52
2024/01/21 09:47:37;;;;;;;93.10;33.67;;;;;;;;;;4908599;29;20614;-51
2024/01/21 09:50:03;;;;;;;112.33;42.57;;;;;;;;;;4901921;29;20423;-51
2024/01/21 09:52:29;;;;;;;113.23;38.80;;;;;;;;;;4904553;29;20424;-50
2024/01/21 09:54:55;;;;;;;112.30;36.50;;;;;;;;;;4906024;29;20480;-50
2024/01/21 09:57:21;;;;;;;79.10;28.43;;;;;;;;;;4913003;29;20215;-50
2024/01/21 09:59:48;;;;;;;62.50;19.67;;;;;;;;;;4912141;29;20515;-53
2024/01/21 10:02:17;;;;;;;49.70;17.43;;;;;;;;;;4903605;29;20424;-55
2024/01/21 10:04:46;;;;;;;49.53;17.57;;;;;;;;;;4907712;29;20487;-51
2024/01/21 10:07:12;;;;;;;43.03;16.53;;;;;;;;;;4904400;29;20880;-52
2024/01/21 10:09:39;;;;;;;44.27;15.63;;;;;;;;;;4905267;29;20468;-50
2024/01/21 10:12:06;;;;;;;43.47;15.67;;;;;;;;;;4912948;29;20448;-50
2024/01/21 10:14:32;;;;;;;41.40;14.97;;;-8.30;99.90;;;;;;4908870;29;20428;-55
2024/01/21 10:16:58;;;;;;;43.13;16.33;;;-4.70;99.90;;;;;;4900920;29;20454;-51
2024/01/21 10:19:31;;;;;;;40.57;14.53;;;-4.60;99.90;;;;;;4913140;29;20215;-50
2024/01/21 10:22:08;;;;;;;42.47;15.13;;;-4.50;99.90;;;;;;4905241;29;20423;-51
2024/01/21 10:24:43;;;;;;;42.27;15.20;;;-4.40;99.90;;;;;;4894316;29;20440;-53
2024/01/21 10:27:09;;;;;;;44.40;15.00;;;-4.40;99.90;;;;;;4894624;29;20539;-49
2024/01/21 10:29:43;;;;;;;44.93;15.67;;;-4.30;99.90;;;;;;4905061;29;20431;-50
2024/01/21 10:32:13;;;;;;;43.80;16.33;;;-4.10;99.90;;;;;;4913043;29;20412;-52
2024/01/21 10:34:47;;;;;;;56.60;17.17;;;-3.80;99.90;;;;;;4905351;29;20428;-50
2024/01/21 10:37:16;;;;;;;45.50;17.87;;;-3.60;99.90;;;;;;4910855;29;20459;-52
2024/01/21 10:39:46;;;;;;;52.27;18.17;;;-3.50;99.90;;;;;;4900085;29;20439;-51
2024/01/21 10:42:16;;;;;;;58.50;19.60;;;-3.20;99.90;;;;;;4911039;29;20428;-50
2024/01/21 10:44:43;;;;;;;51.13;16.73;;;-3.00;99.90;;;;;;4899504;29;20437;-51
2024/01/21 10:47:09;;;;;;;53.50;17.80;;;-2.90;99.90;;;;;;4908849;29;20486;-50
2024/01/21 10:49:35;;;;;;;44.70;17.90;;;-2.80;99.90;;;;;;4904910;29;21058;-53
2024/01/21 10:52:01;;;;;;;47.90;17.60;;;-2.60;99.90;;;;;;4907948;29;20223;-49
2024/01/21 10:54:28;;;;;;;55.23;18.90;;;-2.60;99.90;;;;;;4905467;29;20475;-52
2024/01/21 10:56:53;;;;;;;45.00;17.07;;;-2.60;99.90;;;;;;4911649;29;20447;-53
2024/01/21 10:59:20;;;;;;;49.63;17.90;;;-2.60;99.90;;;;;;4908337;29;20832;-53
2024/01/21 11:01:47;;;;;;;49.50;17.67;;;-2.50;99.90;;;;;;4909791;29;20288;-51
2024/01/21 11:04:13;;;;;;;137.47;40.87;;;-2.50;99.90;;;;;;4905318;29;20931;-51
2024/01/21 11:06:46;;;;;;;54.30;19.33;;;-2.50;99.90;;;;;;4904613;29;20550;-53
2024/01/21 11:09:16;;;;;;;55.30;18.43;;;-2.30;99.90;;;;;;4913126;29;20188;-53
2024/01/21 11:11:42;;;;;;;49.40;18.37;;;-2.10;99.90;;;;;;4897688;29;20428;-51
2024/01/21 11:14:34;;;;;;;47.03;17.20;;;-2.10;99.90;;;;;;4897188;29;20519;-53
2024/01/21 11:17:02;;;;;;;48.47;16.93;;;-1.80;99.90;;;;;;4912633;29;20487;-52
2024/01/21 11:19:43;;;;;;;52.27;17.20;;;-1.80;99.90;;;;;;4916389;29;20482;-51
2024/01/21 11:22:12;;;;;;;50.30;18.93;;;-1.80;99.90;;;;;;4916291;29;20454;-51
2024/01/21 11:24:38;;;;;;;49.23;17.50;;;-1.90;99.90;;;;;;4916156;29;20484;-53
2024/01/21 11:27:04;;;;;;;42.70;16.93;;;-2.10;99.90;;;;;;4915156;29;20562;-49
2024/01/21 11:29:32;;;;;;;45.00;18.00;;;-2.00;99.90;;;;;;4908687;29;20695;-51
2024/01/21 11:32:06;;;;;;;45.43;16.30;;;-2.00;99.90;;;;;;4908740;29;20480;-51
2024/01/21 11:34:38;;;;;;;49.30;18.07;;;-2.00;99.90;;;;;;4900996;29;20992;-50
2024/01/21 11:37:04;;;;;;;46.63;16.40;;;-2.00;99.90;;;;;;4915237;29;20447;-54
2024/01/21 11:39:30;;;;;;;49.90;17.20;;;-2.10;99.90;;;;;;4915975;29;20446;-53
2024/01/21 11:41:55;;;;;;;51.83;18.63;;;-2.00;99.90;;;;;;4916034;29;20853;-52
2024/01/21 11:44:23;;;;;;;48.20;18.50;;;-2.00;99.90;;;;;;4915623;29;20697;-50
2024/01/21 11:46:49;;;;;;;45.10;16.10;;;-1.90;99.90;;;;;;4909350;29;20251;-51
2024/01/21 11:49:15;;;;;;;46.53;17.07;;;-2.00;99.90;;;;;;4903571;29;20480;-50
2024/01/21 11:51:41;;;;;;;41.33;17.23;;;-1.90;99.90;;;;;;4915565;29;20435;-51
2024/01/21 11:54:07;;;;;;;45.70;16.20;;;-1.90;99.90;;;;;;4915473;29;20522;-51
2024/01/21 11:56:34;;;;;;;51.83;18.57;;;-1.90;99.90;;;;;;4914829;29;20567;-53
2024/01/21 11:59:00;;;;;;;45.37;17.97;;;-1.90;99.90;;;;;;4907913;29;20224;-50
2024/01/21 12:01:27;;;;;;;51.30;16.70;;;-1.90;99.90;;;;;;4912199;29;20433;-50
2024/01/21 12:03:55;;;;;;;42.43;16.20;;;-1.80;99.90;;;;;;4906427;29;20645;-50
2024/01/21 12:06:22;;;;;;;50.83;17.73;;;-1.70;99.90;;;;;;4905701;29;20522;-52
2024/01/21 12:08:48;;;;;;;45.90;18.53;;;-1.70;99.90;;;;;;4915414;29;20486;-51
2024/01/21 12:11:16;;;;;;;54.90;21.13;;;-1.60;99.90;;;;;;4905752;29;20503;-51
2024/01/21 12:13:43;;;;;;;53.37;20.27;;;-1.60;99.90;;;;;;4903166;29;20565;-53
2024/01/21 12:16:12;;;;;;;45.77;18.00;;;-1.60;99.90;;;;;;4913395;29;20433;-51
2024/01/21 12:18:41;;;;;;;46.87;16.03;;;-1.50;99.90;;;;;;4908571;29;20511;-53
2024/01/21 12:21:10;;;;;;;46.53;18.40;;;-1.60;99.90;;;;;;4898883;29;20433;-52
2024/01/21 12:23:39;;;;;;;49.07;18.67;;;-1.60;99.90;;;;;;4900559;29;20473;-52
2024/01/21 12:26:05;;;;;;;46.83;18.17;;;-1.50;99.90;;;;;;4898136;29;20469;-51
2024/01/21 12:28:31;;;;;;;49.30;17.43;;;-1.50;99.90;;;;;;4903871;29;20231;-53
2024/01/21 12:30:57;;;;;;;41.20;16.20;;;-1.60;99.90;;;;;;4910673;29;20204;-51
2024/01/21 12:33:23;;;;;;;40.03;15.70;;;-1.50;99.90;;;;;;4899146;29;20200;-51
2024/01/21 12:35:49;;;;;;;41.97;15.70;;;-1.50;99.90;;;;;;4914371;29;21045;-50
2024/01/21 12:38:16;;;;;;;41.03;15.80;;;-1.50;99.90;;;;;;4912763;29;20463;-50
2024/01/21 12:40:42;;;;;;;46.10;16.07;;;-1.50;99.90;;;;;;4900833;29;20204;-54